Time;durP1;ratioP1;P1;durP2;ratioP2;P2;SDS_P1;SDS_P2;PMS_P1;PMS_P2;Temp;Humidity;BMP_temperature;BMP_pressure;BME280_temperature;BME280_humidity;BME280_pressure;Samples;Min_cycle;Max_cycle;Signal;HPM_P1;HPM_P2
2020/12/11 00:00:44;;;;;;;25.20;20.30;;;4.10;46.70;6.00;99461.00;;;;5075170;28;20510;-80
2020/12/11 00:03:14;;;;;;;23.90;20.48;;;4.10;47.30;5.90;99461.00;;;;5059224;28;20432;-79
2020/12/11 00:05:42;;;;;;;26.05;21.30;;;4.10;46.60;5.80;99459.00;;;;5060924;28;20414;-78
2020/12/11 00:08:09;;;;;;;25.25;20.95;;;4.10;46.60;5.80;99442.00;;;;5075819;28;20485;-79
2020/12/11 00:10:37;;;;;;;24.83;20.58;;;4.10;47.00;5.80;99463.00;;;;5074040;28;20420;-78
2020/12/11 00:13:04;;;;;;;23.92;20.25;;;4.10;47.10;5.80;99460.00;;;;5059537;28;20438;-78
2020/12/11 00:15:32;;;;;;;24.30;20.07;;;4.00;47.10;5.80;99457.00;;;;5097234;28;20470;-78
2020/12/11 00:17:59;;;;;;;23.80;19.88;;;4.00;47.10;5.80;99429.00;;;;5074606;28;20455;-78
2020/12/11 00:20:28;;;;;;;25.87;21.53;;;4.00;47.20;5.80;99415.00;;;;5074453;28;20479;-78
2020/12/11 00:22:55;;;;;;;24.60;20.73;;;4.00;47.90;5.70;99444.00;;;;5056053;28;21016;-80
2020/12/11 00:25:23;;;;;;;24.73;21.23;;;4.00;47.80;5.70;99430.00;;;;5055127;28;20422;-79
2020/12/11 00:27:51;;;;;;;25.38;20.92;;;4.00;47.70;5.80;99428.00;;;;5073466;28;20468;-77
2020/12/11 00:30:18;;;;;;;23.30;20.20;;;4.10;48.20;5.70;99407.00;;;;5076714;28;20410;-78
2020/12/11 00:32:45;;;;;;;24.23;20.70;;;4.00;47.20;5.60;99408.00;;;;5031547;28;1316753;-77
2020/12/11 00:35:13;;;;;;;22.88;19.90;;;4.00;47.00;5.70;99392.00;;;;5065652;28;20472;-78
2020/12/11 00:37:43;;;;;;;23.50;20.63;;;4.00;47.60;5.70;99402.00;;;;5074433;28;20467;-80
2020/12/11 00:40:10;;;;;;;22.70;20.00;;;4.00;47.20;5.60;99410.00;;;;5062011;28;20408;-80
2020/12/11 00:42:38;;;;;;;24.07;20.60;;;4.00;47.30;5.60;99433.00;;;;5078943;28;20476;-80
2020/12/11 00:45:05;;;;;;;25.50;20.77;;;3.90;47.30;5.60;99405.00;;;;5075099;28;20419;-80
2020/12/11 00:47:32;;;;;;;23.58;20.73;;;3.90;47.50;5.60;99403.00;;;;5074529;28;20468;-80
2020/12/11 00:50:00;;;;;;;22.80;20.10;;;3.90;47.90;5.60;99397.00;;;;5075728;28;20412;-79
2020/12/11 00:52:31;;;;;;;23.23;20.15;;;4.00;47.80;5.70;99385.00;;;;5055905;28;20490;-80
2020/12/11 00:54:59;;;;;;;24.52;20.30;;;3.90;48.20;5.70;99394.00;;;;5054791;28;20433;-78
2020/12/11 00:57:27;;;;;;;24.75;20.67;;;3.90;48.50;5.60;99390.00;;;;5054913;28;20427;-80
2020/12/11 00:59:54;;;;;;;22.48;20.05;;;3.90;48.20;5.60;99388.00;;;;5054538;28;20421;-80
2020/12/11 01:02:23;;;;;;;24.17;20.13;;;3.90;48.20;5.60;99380.00;;;;5052355;28;20425;-79
2020/12/11 01:04:51;;;;;;;24.52;20.20;;;3.90;47.80;5.50;99375.00;;;;5054939;28;20429;-78
2020/12/11 01:07:19;;;;;;;22.58;18.90;;;3.90;48.20;5.50;99368.00;;;;5071517;28;20796;-78
2020/12/11 01:09:46;;;;;;;21.65;18.80;;;3.90;48.30;5.60;99381.00;;;;5056236;28;20555;-78
2020/12/11 01:12:15;;;;;;;23.05;18.95;;;3.90;48.20;5.60;99371.00;;;;5049419;28;20427;-79
2020/12/11 01:14:42;;;;;;;21.80;18.97;;;3.90;48.00;5.60;99383.00;;;;5046309;28;20458;-78
2020/12/11 01:17:09;;;;;;;22.00;18.25;;;3.90;48.20;5.60;99374.00;;;;5068454;28;20426;-79
2020/12/11 01:19:37;;;;;;;21.10;18.85;;;3.90;48.00;5.60;99394.00;;;;5067312;28;20425;-81
2020/12/11 01:22:05;;;;;;;23.83;19.98;;;3.90;48.00;5.50;99387.00;;;;5068869;28;20451;-79
2020/12/11 01:24:32;;;;;;;23.45;19.90;;;3.90;47.50;5.60;99361.00;;;;5067095;28;20459;-80
2020/12/11 01:26:59;;;;;;;22.25;19.33;;;3.80;47.70;5.60;99369.00;;;;5067383;28;20485;-77
2020/12/11 01:29:28;;;;;;;22.48;19.17;;;3.80;48.10;5.60;99357.00;;;;5065500;28;20497;-78
2020/12/11 01:31:56;;;;;;;22.45;19.17;;;3.90;47.90;5.60;99341.00;;;;5060181;28;20421;-78
2020/12/11 01:34:26;;;;;;;21.48;19.17;;;3.80;47.70;5.70;99350.00;;;;5067704;28;20421;-77
2020/12/11 01:36:54;;;;;;;24.30;20.17;;;3.80;48.00;5.70;99346.00;;;;5068530;28;20460;-77
2020/12/11 01:39:21;;;;;;;22.23;19.60;;;3.80;47.80;5.60;99326.00;;;;5066271;28;20421;-81
2020/12/11 01:41:50;;;;;;;21.92;18.45;;;3.90;47.60;5.60;99336.00;;;;5057135;28;20429;-81
2020/12/11 01:44:18;;;;;;;21.60;18.75;;;3.80;47.40;5.50;99329.00;;;;5056414;28;20437;-79
2020/12/11 01:46:49;;;;;;;22.60;19.02;;;3.80;47.30;5.60;99325.00;;;;5060038;28;20556;-78
2020/12/11 01:49:17;;;;;;;22.20;18.88;;;3.80;47.80;5.60;99320.00;;;;5068277;28;20421;-79
2020/12/11 01:51:59;;;;;;;20.58;18.30;;;3.80;47.50;5.60;99321.00;;;;5056286;28;20458;-80
2020/12/11 01:54:27;;;;;;;20.67;18.48;;;3.80;47.40;5.60;99284.00;;;;5072574;28;20477;-80
2020/12/11 01:57:01;;;;;;;20.98;18.40;;;3.80;47.10;5.60;99307.00;;;;5058105;28;20413;-80
2020/12/11 01:59:33;;;;;;;21.50;18.58;;;3.90;47.00;5.70;99293.00;;;;5063970;28;20429;-80
2020/12/11 02:02:05;;;;;;;20.48;18.27;;;3.90;47.00;5.50;99294.00;;;;5095047;28;20419;-79
2020/12/11 02:04:34;;;;;;;20.20;18.00;;;4.00;46.20;5.50;99300.00;;;;5073290;28;20466;-78
2020/12/11 02:07:04;;;;;;;21.20;18.90;;;3.80;46.40;5.50;99292.00;;;;5061142;28;20452;-79
2020/12/11 02:09:34;;;;;;;19.13;17.13;;;3.80;46.10;5.50;99289.00;;;;5094467;28;20435;-80
2020/12/11 02:12:01;;;;;;;20.58;18.27;;;3.80;46.10;5.50;99283.00;;;;5084436;28;20401;-78
2020/12/11 02:14:29;;;;;;;20.73;18.52;;;3.80;46.10;5.50;99284.00;;;;5087301;28;20426;-76
2020/12/11 02:16:58;;;;;;;19.80;17.70;;;3.80;46.10;5.60;99277.00;;;;5103892;28;20432;-78
2020/12/11 02:19:29;;;;;;;19.60;17.50;;;3.80;46.70;5.60;99275.00;;;;5075823;28;20412;-78
2020/12/11 02:21:59;;;;;;;19.13;17.05;;;3.80;46.10;5.50;99271.00;;;;5077753;28;20489;-78
2020/12/11 02:24:27;;;;;;;19.50;17.40;;;3.80;45.90;5.60;99268.00;;;;5078671;28;20512;-79
2020/12/11 02:26:55;;;;;;;19.20;17.20;;;3.80;46.10;5.50;99267.00;;;;5076918;28;20429;-78
2020/12/11 02:29:24;;;;;;;18.90;16.90;;;3.80;45.70;5.50;99266.00;;;;5083735;28;20417;-78
2020/12/11 02:31:52;;;;;;;19.70;17.50;;;3.80;46.00;5.60;99253.00;;;;5077406;28;20424;-78
2020/12/11 02:34:20;;;;;;;19.67;17.60;;;3.80;46.10;5.60;99243.00;;;;5077172;28;20428;-78
2020/12/11 02:36:48;;;;;;;18.67;16.67;;;3.80;46.10;5.70;99247.00;;;;5075984;28;20420;-79
2020/12/11 02:39:16;;;;;;;19.70;17.60;;;3.90;46.10;5.70;99231.00;;;;5075970;28;20439;-78
2020/12/11 02:41:48;;;;;;;20.45;18.35;;;3.90;45.60;5.70;99233.00;;;;5064528;28;20441;-78
2020/12/11 02:44:15;;;;;;;19.57;17.47;;;3.90;46.10;5.70;99230.00;;;;5063081;28;20460;-78
2020/12/11 02:46:42;;;;;;;19.30;17.30;;;3.90;46.00;5.80;99238.00;;;;5073865;28;20490;-79
2020/12/11 02:49:10;;;;;;;20.40;18.20;;;3.90;46.10;5.90;99225.00;;;;5075620;28;20429;-79
2020/12/11 02:51:37;;;;;;;20.13;18.02;;;4.00;46.70;5.90;99218.00;;;;5075320;28;20451;-78
2020/12/11 02:54:05;;;;;;;20.98;18.77;;;4.10;46.40;6.00;67573.00;;;;5092022;28;20408;-78
2020/12/11 02:56:34;;;;;;;21.42;19.13;;;4.10;46.30;6.00;99219.00;;;;5075415;28;20405;-77
2020/12/11 02:59:01;;;;;;;21.55;18.90;;;4.10;46.70;6.00;67601.00;;;;5076188;28;21038;-77
2020/12/11 03:01:29;;;;;;;21.30;19.10;;;4.10;47.30;6.10;99206.00;;;;5081219;28;20454;-78
2020/12/11 03:03:58;;;;;;;21.98;19.40;;;4.10;47.20;6.10;99191.00;;;;5093193;28;20423;-78
2020/12/11 03:06:28;;;;;;;21.20;18.55;;;4.10;47.60;6.10;99190.00;;;;5081126;28;20459;-78
2020/12/11 03:08:56;;;;;;;22.42;18.88;;;4.20;47.70;6.10;99192.00;;;;5071369;28;20413;-77
2020/12/11 03:11:25;;;;;;;22.58;20.13;;;4.20;47.40;6.00;99194.00;;;;5056959;28;20413;-78
2020/12/11 03:13:59;;;;;;;21.83;19.63;;;4.20;45.60;5.90;99189.00;;;;5050783;28;20470;-78
2020/12/11 03:16:26;;;;;;;21.98;19.67;;;4.10;45.90;5.90;99191.00;;;;5050856;28;20445;-78
2020/12/11 03:18:54;;;;;;;22.95;20.50;;;4.00;46.20;5.90;99179.00;;;;5052981;28;20409;-78
2020/12/11 03:21:22;;;;;;;22.48;19.65;;;4.00;47.30;5.90;99158.00;;;;5050299;28;20428;-77
2020/12/11 03:23:50;;;;;;;22.47;20.07;;;4.00;47.60;5.90;99147.00;;;;5059707;28;20416;-76
2020/12/11 03:26:18;;;;;;;22.83;20.20;;;3.90;47.70;5.90;99155.00;;;;5059763;28;20451;-76
2020/12/11 03:28:45;;;;;;;21.95;19.50;;;4.00;48.20;5.90;99146.00;;;;5054368;28;20425;-79
2020/12/11 03:31:13;;;;;;;21.50;19.20;;;4.10;48.60;6.00;99139.00;;;;5065220;28;20462;-76
2020/12/11 03:33:41;;;;;;;23.20;20.33;;;4.00;48.90;6.10;99153.00;;;;5058616;28;20425;-79
2020/12/11 03:36:09;;;;;;;22.35;19.52;;;4.10;49.00;6.10;67603.00;;;;5056294;28;20512;-76
2020/12/11 03:38:37;;;;;;;21.80;19.35;;;4.10;48.70;6.00;99150.00;;;;5067285;28;20418;-76
2020/12/11 03:41:04;;;;;;;22.07;18.60;;;4.10;48.50;6.00;99142.00;;;;5056322;28;20505;-80
2020/12/11 03:43:34;;;;;;;21.70;18.00;;;4.10;49.00;6.00;99113.00;;;;5056843;28;20435;-80
2020/12/11 03:46:01;;;;;;;23.13;18.65;;;4.00;49.30;5.90;99141.00;;;;5057214;28;20460;-77
2020/12/11 03:48:29;;;;;;;22.80;18.90;;;4.00;49.80;6.00;99147.00;;;;5066697;28;20484;-80
2020/12/11 03:50:57;;;;;;;21.90;19.00;;;4.00;50.30;6.00;99143.00;;;;5063694;28;20508;-76
2020/12/11 03:53:24;;;;;;;23.45;18.63;;;4.10;50.10;6.00;99143.00;;;;5054221;28;20483;-76
2020/12/11 03:55:52;;;;;;;21.70;18.15;;;4.00;50.00;6.00;99143.00;;;;5053798;28;20452;-76
2020/12/11 03:58:19;;;;;;;22.17;18.92;;;4.10;50.20;5.90;99131.00;;;;5053978;28;20417;-76
2020/12/11 04:00:47;;;;;;;21.38;18.10;;;4.00;49.90;5.80;99120.00;;;;5056537;28;20429;-78
2020/12/11 04:03:14;;;;;;;22.13;19.10;;;3.90;51.10;5.90;99124.00;;;;5076516;28;20417;-78
2020/12/11 04:05:43;;;;;;;22.13;18.98;;;4.00;51.00;5.90;99117.00;;;;5077034;28;20421;-78
2020/12/11 04:08:11;;;;;;;21.98;18.38;;;4.00;50.90;5.90;99114.00;;;;5075136;28;20468;-78
2020/12/11 04:10:38;;;;;;;21.02;18.35;;;4.00;50.40;5.90;99128.00;;;;5069037;28;20425;-80
2020/12/11 04:13:05;;;;;;;21.48;18.75;;;4.00;50.90;5.90;99113.00;;;;5068632;28;20413;-80
2020/12/11 04:15:33;;;;;;;22.58;18.45;;;3.90;51.30;5.90;99128.00;;;;5066646;28;20452;-81
2020/12/11 04:18:00;;;;;;;21.00;18.10;;;3.90;50.90;5.90;99116.00;;;;5060054;28;20460;-78
2020/12/11 04:20:27;;;;;;;22.20;18.27;;;4.00;51.20;5.80;99119.00;;;;5060002;28;20809;-80
2020/12/11 04:22:56;;;;;;;21.35;18.10;;;3.80;51.00;5.80;99126.00;;;;5059683;28;20506;-79
2020/12/11 04:25:23;;;;;;;21.63;18.30;;;3.90;50.80;5.70;99107.00;;;;5056857;28;20437;-79
2020/12/11 04:27:50;;;;;;;20.47;17.80;;;3.90;50.90;5.80;99121.00;;;;5072376;28;20429;-78
2020/12/11 04:30:18;;;;;;;20.47;17.53;;;3.90;51.20;5.80;99114.00;;;;5076392;28;20416;-78
2020/12/11 04:32:45;;;;;;;22.23;18.90;;;3.90;51.70;5.80;99106.00;;;;5069237;28;20435;-79
2020/12/11 04:35:13;;;;;;;21.85;18.27;;;3.90;51.90;5.80;99086.00;;;;5072688;28;20450;-80
2020/12/11 04:37:42;;;;;;;22.20;19.45;;;3.90;51.60;5.60;99082.00;;;;5068277;28;20425;-80
2020/12/11 04:40:11;;;;;;;22.02;18.90;;;3.80;51.60;5.60;99087.00;;;;5062980;28;20532;-79
2020/12/11 04:42:45;;;;;;;22.88;18.52;;;3.70;52.00;5.60;99094.00;;;;5052584;28;20698;-77
2020/12/11 04:45:13;;;;;;;22.73;19.35;;;3.70;52.80;5.50;99091.00;;;;5067439;28;20475;-78
2020/12/11 04:47:41;;;;;;;22.40;18.80;;;3.70;52.30;5.40;99088.00;;;;5066497;28;20451;-77
2020/12/11 04:50:11;;;;;;;21.58;18.80;;;3.60;52.40;5.40;99090.00;;;;5054838;28;20421;-77
2020/12/11 04:52:43;;;;;;;22.40;19.35;;;3.60;52.60;5.40;99086.00;;;;5040888;28;20792;-78
2020/12/11 04:55:14;;;;;;;22.20;19.50;;;3.60;52.90;5.30;99088.00;;;;5058528;28;20547;-77
2020/12/11 04:57:46;;;;;;;25.15;21.02;;;3.60;52.70;5.30;99083.00;;;;5053374;28;20413;-77
2020/12/11 05:00:15;;;;;;;22.90;18.73;;;3.60;52.90;5.20;99087.00;;;;5053064;28;20431;-77
2020/12/11 05:02:44;;;;;;;23.30;19.73;;;3.50;52.90;5.20;99070.00;;;;5052468;28;20846;-77
2020/12/11 05:05:13;;;;;;;24.80;19.52;;;3.50;53.20;5.20;99070.00;;;;5077093;28;20444;-77
2020/12/11 05:07:41;;;;;;;21.93;19.63;;;3.50;53.50;5.20;99068.00;;;;5061573;28;20509;-80
2020/12/11 05:10:14;;;;;;;24.60;20.20;;;3.60;53.60;5.20;99072.00;;;;5051658;28;20421;-78
2020/12/11 05:12:44;;;;;;;22.50;18.88;;;3.50;52.90;5.30;99064.00;;;;5055767;28;20443;-78
2020/12/11 05:15:13;;;;;;;23.55;19.98;;;3.60;53.50;5.40;99062.00;;;;5053538;28;20472;-78
2020/12/11 05:17:42;;;;;;;25.20;19.90;;;3.60;53.20;5.50;99050.00;;;;5042257;28;20417;-78
2020/12/11 05:20:13;;;;;;;22.38;19.10;;;3.70;53.20;5.60;99053.00;;;;5046151;28;20462;-78
2020/12/11 05:22:42;;;;;;;24.17;19.70;;;3.70;53.10;5.50;99047.00;;;;5053882;28;20425;-79
2020/12/11 05:25:13;;;;;;;21.08;18.73;;;3.80;53.00;5.50;99058.00;;;;5055280;28;20421;-79
2020/12/11 05:27:44;;;;;;;23.45;19.98;;;3.70;53.20;5.50;99060.00;;;;5060798;28;20442;-76
2020/12/11 05:30:25;;;;;;;22.45;19.60;;;3.70;53.30;5.50;99042.00;;;;5077362;28;20956;-76
2020/12/11 05:32:59;;;;;;;22.30;19.30;;;3.80;53.10;5.50;99055.00;;;;5054009;28;20824;-77
2020/12/11 05:35:30;;;;;;;24.17;19.50;;;3.70;52.20;5.40;99055.00;;;;5066722;28;20883;-77
2020/12/11 05:38:02;;;;;;;25.20;20.63;;;3.60;52.80;5.40;99049.00;;;;5064787;28;20502;-76
2020/12/11 05:40:32;;;;;;;24.00;20.40;;;3.60;53.50;5.30;99055.00;;;;5059425;28;20788;-76
2020/12/11 05:43:15;;;;;;;22.70;20.10;;;3.60;53.60;5.30;99027.00;;;;5084909;28;20507;-76
2020/12/11 05:45:50;;;;;;;25.13;20.85;;;3.50;53.50;5.30;99030.00;;;;5060336;28;20452;-76
2020/12/11 05:48:20;;;;;;;25.15;20.58;;;3.50;53.90;5.20;99011.00;;;;5051540;28;20496;-77
2020/12/11 05:50:47;;;;;;;24.50;21.15;;;3.40;54.30;5.20;99014.00;;;;5051592;28;20533;-77
2020/12/11 05:53:15;;;;;;;24.60;20.40;;;3.40;54.60;5.10;99000.00;;;;5064097;28;21310;-77
2020/12/11 05:55:42;;;;;;;27.00;21.35;;;3.30;55.60;5.10;99014.00;;;;5064633;28;20421;-76
2020/12/11 05:58:12;;;;;;;25.88;20.83;;;3.20;54.90;5.10;99000.00;;;;5062327;28;20415;-76
2020/12/11 06:00:40;;;;;;;26.88;21.70;;;3.30;55.00;5.10;99004.00;;;;5069653;28;20423;-77
2020/12/11 06:03:09;;;;;;;27.90;21.75;;;3.30;55.20;5.10;99001.00;;;;5061849;28;20455;-77
2020/12/11 06:05:39;;;;;;;27.15;22.23;;;3.20;55.70;5.00;99021.00;;;;5045918;28;20907;-78
2020/12/11 06:08:12;;;;;;;26.63;21.63;;;3.10;56.10;5.00;99007.00;;;;5056547;28;20473;-77
2020/12/11 06:10:41;;;;;;;26.08;21.98;;;3.10;56.00;5.00;99016.00;;;;5056584;28;20475;-76
2020/12/11 06:13:09;;;;;;;29.30;22.33;;;3.10;56.10;5.00;99007.00;;;;5054965;28;20424;-76
2020/12/11 06:15:41;;;;;;;26.80;21.52;;;3.10;56.10;4.90;99015.00;;;;5070274;28;20513;-78
2020/12/11 06:18:16;;;;;;;25.88;21.70;;;3.30;58.00;5.00;99013.00;;;;5054765;28;20945;-76
2020/12/11 06:20:47;;;;;;;27.90;22.20;;;3.40;57.00;5.00;98992.00;;;;5060645;28;20461;-76
2020/12/11 06:23:23;;;;;;;26.42;22.70;;;3.40;55.50;5.10;98947.00;;;;5063270;28;20416;-76
2020/12/11 06:25:53;;;;;;;31.45;24.55;;;3.30;55.00;5.00;98970.00;;;;5064432;28;20871;-79
2020/12/11 06:28:43;;;;;;;28.35;23.65;;;3.20;55.30;4.90;98972.00;;;;5064239;28;20475;-77
2020/12/11 06:31:13;;;;;;;29.40;23.58;;;3.10;55.90;4.90;98971.00;;;;5073048;28;20968;-78
2020/12/11 06:33:44;;;;;;;28.30;23.67;;;3.10;56.10;4.90;98942.00;;;;5062656;28;20507;-79
2020/12/11 06:36:11;;;;;;;30.40;24.20;;;3.00;56.30;4.90;98969.00;;;;5071343;28;20458;-76
2020/12/11 06:38:45;;;;;;;26.48;22.55;;;3.00;56.40;4.90;98944.00;;;;5068222;28;20420;-77
2020/12/11 06:41:13;;;;;;;28.27;22.35;;;3.00;56.40;4.90;98958.00;;;;5070511;28;20416;-76
2020/12/11 06:43:43;;;;;;;28.85;22.50;;;3.00;56.40;4.90;98968.00;;;;5077175;28;20422;-76
2020/12/11 06:46:19;;;;;;;28.92;23.00;;;3.00;56.20;4.90;98963.00;;;;5051713;28;20917;-76
2020/12/11 06:49:10;;;;;;;29.70;23.02;;;3.10;56.30;5.00;98967.00;;;;5033214;28;20465;-76
2020/12/11 06:52:10;;;;;;;27.27;22.83;;;3.10;56.00;5.00;98963.00;;;;5046297;28;20447;-78
2020/12/11 06:54:55;;;;;;;27.55;22.42;;;3.20;55.70;5.00;98949.00;;;;5046319;28;20407;-77
2020/12/11 06:57:49;;;;;;;26.67;22.58;;;3.20;54.90;5.10;98944.00;;;;5075076;28;20411;-78
2020/12/11 07:00:47;;;;;;;27.60;22.70;;;3.30;55.00;5.20;98951.00;;;;5065069;28;20434;-79
2020/12/11 07:03:21;;;;;;;27.80;23.38;;;3.30;55.60;5.20;98940.00;;;;5097572;28;20458;-77
2020/12/11 07:06:03;;;;;;;26.70;22.80;;;3.40;54.50;5.30;98952.00;;;;5091839;28;20453;-78
2020/12/11 07:08:32;;;;;;;29.30;23.42;;;3.40;54.00;5.30;98941.00;;;;5065526;28;20419;-78
2020/12/11 07:11:14;;;;;;;28.97;22.80;;;3.40;53.90;5.30;98933.00;;;;5097517;28;20526;-77
2020/12/11 07:13:50;;;;;;;30.73;24.38;;;3.40;53.70;5.30;98912.00;;;;5085966;28;20445;-77
2020/12/11 07:16:19;;;;;;;29.88;24.67;;;3.50;54.00;5.20;98915.00;;;;5061623;28;20499;-77
2020/12/11 07:18:47;;;;;;;30.93;24.40;;;3.40;53.70;5.30;98902.00;;;;5077941;28;20449;-82
2020/12/11 07:21:15;;;;;;;29.17;24.98;;;3.50;53.80;5.30;98913.00;;;;5082554;28;20425;-82
2020/12/11 07:23:43;;;;;;;29.47;24.17;;;3.50;53.50;5.40;98899.00;;;;5091257;28;20522;-78
2020/12/11 07:26:11;;;;;;;30.65;24.77;;;3.70;53.20;5.40;98896.00;;;;5078245;28;20427;-77
2020/12/11 07:28:38;;;;;;;31.30;24.33;;;3.70;52.70;5.30;98886.00;;;;5079182;28;20422;-78
2020/12/11 07:31:12;;;;;;;28.23;24.20;;;3.60;53.10;5.30;98901.00;;;;5095628;28;20559;-78
2020/12/11 07:33:42;;;;;;;28.15;24.50;;;3.60;53.20;5.30;98900.00;;;;5090071;28;20412;-77
2020/12/11 07:36:11;;;;;;;29.70;23.65;;;3.50;53.30;5.40;98887.00;;;;5063917;28;20507;-77
2020/12/11 07:38:41;;;;;;;29.30;24.10;;;3.60;53.60;5.40;98873.00;;;;5060970;28;20907;-77
2020/12/11 07:41:09;;;;;;;29.88;22.98;;;3.60;53.20;5.40;98887.00;;;;5055056;28;20988;-77
2020/12/11 07:43:46;;;;;;;28.17;23.67;;;3.70;53.10;5.60;98885.00;;;;5055931;28;20519;-77
2020/12/11 07:46:22;;;;;;;28.55;23.30;;;3.80;52.90;5.60;98887.00;;;;5056446;28;20452;-79
2020/12/11 07:48:51;;;;;;;28.55;24.05;;;3.80;52.50;5.70;98892.00;;;;5055011;28;20955;-77
2020/12/11 07:51:19;;;;;;;30.23;24.13;;;3.80;52.50;5.70;98894.00;;;;5057847;28;20785;-77
2020/12/11 07:53:54;;;;;;;28.70;23.90;;;3.90;51.20;5.80;98904.00;;;;5056107;28;20521;-77
2020/12/11 07:56:28;;;;;;;27.17;23.35;;;4.00;51.40;5.90;98895.00;;;;5055322;28;20417;-78
2020/12/11 07:58:55;;;;;;;27.70;22.67;;;4.10;51.00;6.00;98900.00;;;;5055204;28;20512;-78
2020/12/11 08:01:23;;;;;;;27.83;23.65;;;4.10;50.60;6.10;98884.00;;;;5045773;28;20886;-77
2020/12/11 08:03:51;;;;;;;27.80;24.17;;;4.20;50.20;6.10;98891.00;;;;5034097;28;21015;-78
2020/12/11 08:06:18;;;;;;;26.45;23.08;;;4.20;50.00;6.20;98892.00;;;;5034447;28;20451;-80
2020/12/11 08:08:46;;;;;;;27.35;23.77;;;4.30;49.80;6.20;98889.00;;;;5033723;28;21069;-77
2020/12/11 08:11:24;;;;;;;29.73;23.77;;;4.30;49.40;217.30;159322.00;;;;5033853;28;20946;-78
2020/12/11 08:14:01;;;;;;;26.85;23.00;;;4.30;48.00;6.20;98890.00;;;;5041362;28;20555;-77
2020/12/11 08:16:30;;;;;;;26.40;22.55;;;4.30;48.00;6.20;98891.00;;;;5071383;28;20424;-81
2020/12/11 08:18:58;;;;;;;27.80;23.83;;;4.30;47.80;6.30;98892.00;;;;5077558;28;20431;-85
2020/12/11 08:21:29;;;;;;;27.17;23.17;;;4.40;47.90;6.30;98898.00;;;;5076972;28;20429;-78
2020/12/11 08:23:57;;;;;;;28.27;24.13;;;4.50;46.70;6.40;98881.00;;;;5069633;28;20429;-78
2020/12/11 08:26:47;;;;;;;29.23;23.87;;;4.50;47.30;6.50;98883.00;;;;5058164;28;20630;-81
2020/12/11 08:29:19;;;;;;;27.92;24.10;;;4.60;46.80;6.50;98880.00;;;;5076683;28;20403;-80
2020/12/11 08:31:46;;;;;;;27.08;23.35;;;4.60;46.80;6.50;98885.00;;;;5077716;28;20409;-80
2020/12/11 08:34:16;;;;;;;26.95;23.50;;;4.60;46.80;6.40;98875.00;;;;5078386;28;20419;-82
2020/12/11 08:36:46;;;;;;;29.55;24.58;;;4.60;46.60;6.50;98880.00;;;;5077508;28;20455;-77
2020/12/11 08:39:20;;;;;;;27.67;22.95;;;4.70;46.20;6.60;98862.00;;;;5065335;28;20421;-78
2020/12/11 08:42:17;;;;;;;27.17;23.60;;;4.70;46.70;6.90;98872.00;;;;5076823;28;21124;-80
2020/12/11 08:50:38;;;;;;;25.55;22.60;;;5.00;44.40;7.00;98860.00;;;;5022599;28;20494;-77
2020/12/11 08:53:08;;;;;;;26.55;23.10;;;5.00;44.40;7.00;98856.00;;;;5046743;28;20425;-77
2020/12/11 08:55:37;;;;;;;25.13;22.30;;;4.90;44.40;6.80;98867.00;;;;5057098;28;20405;-78
2020/12/11 08:58:05;;;;;;;27.38;23.70;;;4.90;43.60;6.80;98868.00;;;;5058593;28;21103;-80
2020/12/11 09:00:35;;;;;;;27.60;23.52;;;4.90;45.30;6.80;98856.00;;;;5054515;28;20412;-77
2020/12/11 09:03:03;;;;;;;26.27;22.58;;;4.90;44.00;7.00;98857.00;;;;5057172;28;20793;-79
2020/12/11 09:05:32;;;;;;;25.88;22.75;;;4.90;43.90;7.10;98848.00;;;;5074737;28;20418;-79
2020/12/11 09:07:59;;;;;;;25.33;22.58;;;5.00;44.20;7.30;67877.00;;;;5064189;28;20411;-79
2020/12/11 09:10:27;;;;;;;24.80;21.83;;;5.20;43.50;7.60;98817.00;;;;5063973;28;20503;-79
2020/12/11 09:12:54;;;;;;;25.92;22.58;;;5.60;43.70;7.60;98831.00;;;;5060455;28;20456;-78
2020/12/11 09:15:23;;;;;;;25.48;22.67;;;5.60;41.30;7.60;98828.00;;;;5065525;28;20416;-79
2020/12/11 09:17:51;;;;;;;26.55;22.30;;;5.50;39.90;7.70;98848.00;;;;5059292;28;20420;-78
2020/12/11 09:20:21;;;;;;;25.88;22.05;;;5.60;40.00;7.90;98835.00;;;;5074438;28;20756;-78
2020/12/11 09:22:50;;;;;;;25.88;22.60;;;5.80;38.80;8.10;98836.00;;;;5070705;28;20518;-79
2020/12/11 09:25:18;;;;;;;25.10;22.40;;;5.90;38.10;8.40;98831.00;;;;5070908;28;20429;-78
2020/12/11 09:27:47;;;;;;;23.95;21.35;;;6.20;36.70;8.40;98835.00;;;;5065679;28;20425;-78
2020/12/11 09:30:24;;;;;;;23.83;21.23;;;6.20;36.20;8.20;98823.00;;;;5065170;28;20448;-79
2020/12/11 09:33:00;;;;;;;23.83;21.33;;;6.10;35.50;8.10;98820.00;;;;5060423;28;20455;-78
2020/12/11 09:35:31;;;;;;;23.05;20.65;;;6.00;35.40;8.10;98833.00;;;;5053672;28;21000;-79
2020/12/11 09:38:00;;;;;;;25.10;21.73;;;6.00;36.90;8.20;98825.00;;;;5046544;28;20413;-79
2020/12/11 09:40:37;;;;;;;24.50;21.63;;;6.00;36.40;8.00;98819.00;;;;5063587;28;20436;-78
2020/12/11 09:43:44;;;;;;;26.08;22.20;;;6.00;35.70;8.10;98820.00;;;;5069338;28;20432;-78
2020/12/11 09:46:22;;;;;;;23.83;21.33;;;5.90;36.30;8.00;98818.00;;;;5052072;28;20448;-78
2020/12/11 09:48:52;;;;;;;25.45;22.13;;;5.90;36.10;8.00;98830.00;;;;5059437;28;20420;-79
2020/12/11 09:51:41;;;;;;;24.33;21.60;;;5.90;37.60;7.80;98802.00;;;;5047104;28;20417;-79
2020/12/11 09:54:14;;;;;;;27.00;21.77;;;5.80;36.20;7.60;98821.00;;;;5074981;28;20499;-78
2020/12/11 09:56:44;;;;;;;24.40;21.43;;;5.70;36.40;7.70;98787.00;;;;5060428;28;20499;-79
2020/12/11 09:59:16;;;;;;;25.05;21.85;;;5.70;36.90;7.70;98802.00;;;;5060070;28;21991;-79
2020/12/11 10:04:38;;;;;;;24.50;21.90;;;5.80;37.20;8.00;98797.00;;;;5022218;28;20792;-78
2020/12/11 10:07:08;;;;;;;26.95;23.15;;;6.00;36.50;8.10;98805.00;;;;5054544;28;20429;-78
2020/12/11 10:09:38;;;;;;;25.58;22.00;;;6.10;37.00;8.20;68056.00;;;;5058063;28;20509;-78
2020/12/11 10:12:05;;;;;;;24.23;21.63;;;6.10;35.30;8.20;98796.00;;;;5054405;28;20801;-78
2020/12/11 10:14:35;;;;;;;24.27;21.67;;;6.10;34.70;8.30;98793.00;;;;5060852;28;20422;-79
2020/12/11 10:17:03;;;;;;;24.92;22.25;;;6.10;34.20;8.40;98808.00;;;;5068558;28;20418;-78
2020/12/11 10:19:31;;;;;;;25.10;22.40;;;6.20;35.00;8.30;98786.00;;;;5051801;28;20423;-79
2020/12/11 10:21:59;;;;;;;26.77;23.05;;;6.20;33.60;8.40;98804.00;;;;5066007;28;20487;-78
2020/12/11 10:24:27;;;;;;;26.65;23.00;;;6.20;33.60;8.50;98797.00;;;;5056812;28;20423;-79
2020/12/11 10:26:56;;;;;;;25.60;22.80;;;6.20;33.10;8.60;98769.00;;;;5054350;28;20429;-79
2020/12/11 10:29:24;;;;;;;25.30;22.60;;;6.30;33.70;8.80;98775.00;;;;5056078;28;20504;-78
2020/12/11 10:31:52;;;;;;;24.75;22.02;;;6.40;33.50;8.70;98772.00;;;;5051838;28;20507;-79
2020/12/11 10:34:20;;;;;;;24.58;21.98;;;6.40;32.20;8.70;98777.00;;;;5052670;28;20427;-79
2020/12/11 10:36:47;;;;;;;25.90;23.10;;;6.40;31.90;8.60;98766.00;;;;5060885;28;20425;-80
2020/12/11 10:39:15;;;;;;;27.75;24.00;;;6.30;33.40;8.70;98752.00;;;;5064096;28;20437;-78
2020/12/11 10:41:43;;;;;;;27.17;23.00;;;6.40;33.10;8.70;98754.00;;;;5067294;28;20892;-79
2020/12/11 10:44:11;;;;;;;27.67;24.05;;;6.30;33.80;8.60;98756.00;;;;5068328;28;20444;-78
2020/12/11 10:46:39;;;;;;;27.75;24.30;;;6.30;33.90;8.60;98763.00;;;;5067634;28;20439;-79
2020/12/11 10:49:06;;;;;;;25.55;22.83;;;6.30;33.30;8.70;98758.00;;;;5065762;28;20425;-79
2020/12/11 10:51:35;;;;;;;26.85;22.42;;;6.40;33.00;8.90;98749.00;;;;5070223;28;20508;-78
2020/12/11 10:54:03;;;;;;;26.90;23.47;;;6.50;32.60;8.90;98734.00;;;;5058139;28;20408;-78
2020/12/11 10:56:33;;;;;;;25.48;22.63;;;6.50;31.30;8.80;98747.00;;;;5068825;28;20450;-79
2020/12/11 10:59:00;;;;;;;26.77;23.48;;;6.40;30.90;8.70;98723.00;;;;5057609;28;20523;-79
2020/12/11 11:01:29;;;;;;;25.83;21.33;;;6.40;31.50;8.60;98742.00;;;;5057343;28;20432;-79
2020/12/11 11:03:56;;;;;;;26.30;22.33;;;6.40;31.50;8.60;98728.00;;;;5058519;28;20429;-79
2020/12/11 11:06:27;;;;;;;25.85;22.13;;;6.40;31.70;8.60;98732.00;;;;5058010;28;20436;-79
2020/12/11 11:09:08;;;;;;;25.17;22.50;;;6.40;31.40;8.50;98724.00;;;;5054821;28;20427;-80
2020/12/11 11:11:38;;;;;;;25.27;22.55;;;6.40;32.00;8.40;98715.00;;;;5053147;28;20431;-79
2020/12/11 11:14:21;;;;;;;26.27;23.05;;;6.30;31.30;8.40;98711.00;;;;5056747;28;20427;-79
2020/12/11 11:17:17;;;;;;;25.17;21.63;;;6.30;32.80;8.30;98714.00;;;;5038491;28;20507;-79